Time;durP1;ratioP1;P1;durP2;ratioP2;P2;SDS_P1;SDS_P2;PMS_P1;PMS_P2;Temp;Humidity;BMP_temperature;BMP_pressure;BME280_temperature;BME280_humidity;BME280_pressure;Samples;Min_cycle;Max_cycle;Signal;HPM_P1;HPM_P2
2021/01/02 00:01:27;;;;;;;0.40;0.30;;;;;;;4.28;84.34;100625.88;5056736;28;20498;-66
2021/01/02 00:04:23;;;;;;;1.50;1.40;;;;;;;4.28;84.47;100625.88;5056230;28;20927;-65
2021/01/02 00:07:33;;;;;;;1.17;1.07;;;;;;;4.26;84.86;100620.00;5056535;28;20442;-64
2021/01/02 00:10:05;;;;;;;0.50;0.40;;;;;;;4.26;85.15;100625.34;5056189;28;20986;-66
2021/01/02 00:12:59;;;;;;;0.40;0.30;;;;;;;4.22;83.58;100628.81;5056634;28;20429;-66
2021/01/02 00:15:33;;;;;;;0.90;0.50;;;;;;;4.22;82.37;100628.81;5056509;28;20619;-66
2021/01/02 00:18:12;;;;;;;0.40;0.30;;;;;;;4.15;84.84;100622.84;5056418;28;20483;-65
2021/01/02 00:21:09;;;;;;;0.40;0.30;;;;;;;4.14;83.08;100623.91;5055753;28;20500;-66
2021/01/02 00:24:08;;;;;;;0.40;0.40;;;;;;;4.08;83.31;100631.13;5035606;28;20485;-66
2021/01/02 00:26:42;;;;;;;0.40;0.30;;;;;;;4.01;83.05;100623.28;5036456;28;20857;-65
2021/01/02 00:29:16;;;;;;;0.40;0.30;;;;;;;3.95;83.15;100626.19;5036505;28;20459;-64
2021/01/02 00:32:06;;;;;;;2.47;0.50;;;;;;;3.83;83.28;100626.34;5036637;28;20541;-65
2021/01/02 00:35:04;;;;;;;1.00;0.97;;;;;;;3.69;83.74;100634.00;5036004;28;20423;-66
2021/01/02 00:37:34;;;;;;;0.40;0.30;;;;;;;3.65;84.23;100632.88;5032855;28;20462;-65
2021/01/02 00:40:13;;;;;;;0.60;0.40;;;;;;;3.58;83.98;100631.47;5036320;28;20544;-65
2021/01/02 00:42:41;;;;;;;0.40;0.30;;;;;;;3.51;84.00;100632.50;5035952;28;20459;-66
2021/01/02 00:45:09;;;;;;;0.50;0.40;;;;;;;3.43;84.16;100632.94;5035984;28;20498;-65
2021/01/02 00:47:37;;;;;;;0.40;0.30;;;;;;;3.28;84.59;100622.91;5038314;28;20501;-66
2021/01/02 00:50:06;;;;;;;1.13;1.03;;;;;;;3.20;85.50;100625.22;5055447;28;20450;-66
2021/01/02 00:53:02;;;;;;;1.47;0.77;;;;;;;3.04;85.78;100629.56;5056274;28;20529;-65
2021/01/02 00:56:05;;;;;;;0.40;0.30;;;;;;;2.93;86.50;100627.84;5055879;28;20427;-66
2021/01/02 00:59:17;;;;;;;0.50;0.40;;;;;;;2.78;88.12;100633.78;5055750;28;20574;-65
2021/01/02 01:01:46;;;;;;;0.40;0.30;;;;;;;2.68;88.97;100639.00;5055659;28;20458;-66
2021/01/02 01:04:26;;;;;;;0.40;0.30;;;;;;;2.69;88.83;100633.41;5055622;28;20494;-66
2021/01/02 01:06:56;;;;;;;0.40;0.30;;;;;;;2.55;89.68;100634.81;5055448;28;20910;-65
2021/01/02 01:09:24;;;;;;;0.83;0.83;;;;;;;2.55;89.82;100637.50;5055548;28;20438;-65
2021/01/02 01:11:53;;;;;;;0.40;0.30;;;;;;;2.41;90.76;100641.59;5054405;28;20477;-65
2021/01/02 01:14:21;;;;;;;0.40;0.30;;;;;;;2.39;90.59;100641.00;5055420;28;20446;-65
2021/01/02 01:16:51;;;;;;;0.40;0.30;;;;;;;2.36;91.00;100649.53;5055378;28;20438;-65
2021/01/02 01:19:20;;;;;;;0.60;0.40;;;;;;;2.29;91.16;100644.34;5055416;28;20477;-65
2021/01/02 01:21:51;;;;;;;0.40;0.30;;;;;;;2.27;91.10;100644.59;5055229;28;20466;-65
2021/01/02 01:24:23;;;;;;;0.40;0.30;;;;;;;2.18;91.14;100638.03;5055196;28;20473;-66
2021/01/02 01:27:05;;;;;;;0.73;0.73;;;;;;;2.10;91.51;100641.13;5055233;28;20427;-66
2021/01/02 01:29:50;;;;;;;1.40;0.70;;;;;;;1.95;91.14;100638.22;5055274;28;20468;-65
2021/01/02 01:32:20;;;;;;;0.40;0.30;;;;;;;1.98;91.18;100643.06;5055136;28;20427;-65
2021/01/02 01:34:47;;;;;;;0.40;0.30;;;;;;;1.88;90.76;100637.56;5054837;28;20463;-66
2021/01/02 01:37:16;;;;;;;0.40;0.30;;;;;;;1.86;90.95;100642.31;5054675;28;20444;-65
2021/01/02 01:39:49;;;;;;;1.17;0.50;;;;;;;1.69;91.26;100643.13;5054965;28;20498;-65
2021/01/02 01:42:17;;;;;;;0.40;0.30;;;;;;;1.67;90.64;100647.88;5054732;28;20432;-66
2021/01/02 01:44:53;;;;;;;0.40;0.30;;;;;;;1.63;91.26;100643.25;5054859;28;20615;-65
2021/01/02 01:47:22;;;;;;;0.40;0.30;;;;;;;1.57;91.85;100645.03;5054596;28;20429;-65
2021/01/02 01:50:14;;;;;;;1.03;0.87;;;;;;;1.52;91.78;100642.28;5054676;28;20519;-64
2021/01/02 01:53:16;;;;;;;0.50;0.40;;;;;;;1.40;91.39;100652.19;5054871;28;20510;-65
2021/01/02 01:55:57;;;;;;;0.40;0.30;;;;;;;1.26;90.90;100652.47;5054432;28;20925;-65
2021/01/02 01:58:37;;;;;;;0.40;0.30;;;;;;;1.22;91.11;100642.50;5054649;28;20456;-65
2021/01/02 02:01:06;;;;;;;0.40;0.30;;;;;;;1.17;91.11;100653.91;5054514;28;20462;-66
2021/01/02 02:03:46;;;;;;;0.40;0.30;;;;;;;1.13;91.71;100646.59;5054422;28;20534;-65
2021/01/02 02:06:24;;;;;;;0.40;0.30;;;;;;;1.06;92.17;100652.06;5054180;28;20420;-65
2021/01/02 02:08:57;;;;;;;0.40;0.40;;;;;;;1.01;91.47;100652.78;5054474;28;20431;-65
2021/01/02 02:11:44;;;;;;;1.47;0.80;;;;;;;0.89;92.25;100659.19;5054449;28;20512;-65
2021/01/02 02:14:12;;;;;;;0.40;0.30;;;;;;;0.87;92.76;100654.09;5054042;28;20453;-66
2021/01/02 02:16:45;;;;;;;0.80;0.70;;;;;;;0.86;92.60;100657.00;5054096;28;20435;-66
2021/01/02 02:19:39;;;;;;;0.50;0.47;;;;;;;0.92;91.98;100661.38;5054236;28;20442;-65
2021/01/02 02:22:14;;;;;;;0.40;0.40;;;;;;;0.82;92.44;100659.31;5053250;28;20509;-65
2021/01/02 02:24:43;;;;;;;0.40;0.30;;;;;;;0.84;94.04;100651.06;5053893;28;20472;-66
2021/01/02 02:27:12;;;;;;;0.40;0.30;;;;;;;0.87;94.43;100656.75;5053739;28;21002;-66
2021/01/02 02:29:57;;;;;;;0.40;0.30;;;;;;;0.72;95.73;100653.78;5053666;28;20946;-65
2021/01/02 02:32:26;;;;;;;0.40;0.30;;;;;;;0.61;96.06;100658.06;5053947;28;20803;-65
2021/01/02 02:34:53;;;;;;;0.40;0.30;;;;;;;0.55;96.62;100653.66;5053880;28;20434;-66
2021/01/02 02:37:20;;;;;;;0.60;0.40;;;;;;;0.54;96.75;100660.06;5053856;28;20478;-64
2021/01/02 02:39:46;;;;;;;0.40;0.40;;;;;;;0.51;96.08;100655.19;5053882;28;20465;-64
2021/01/02 02:42:15;;;;;;;0.40;0.30;;;;;;;0.49;96.29;100662.59;5053425;28;20479;-64
2021/01/02 02:44:46;;;;;;;0.40;0.30;;;;;;;0.42;96.24;100661.91;5053398;28;20525;-64
2021/01/02 02:47:17;;;;;;;0.80;0.80;;;;;;;0.34;96.51;100662.25;5053390;28;20465;-64
2021/01/02 02:49:48;;;;;;;0.40;0.30;;;;;;;0.40;96.49;100666.63;5053305;28;20422;-65
2021/01/02 02:52:21;;;;;;;0.40;0.30;;;;;;;0.46;96.31;100677.19;5053646;28;20480;-65
2021/01/02 02:54:47;;;;;;;0.40;0.30;;;;;;;0.50;95.36;100675.69;5053249;28;20454;-65
2021/01/02 02:57:16;;;;;;;0.40;0.30;;;;;;;0.44;94.60;100681.94;5053454;28;20446;-65
2021/01/02 02:59:42;;;;;;;0.40;0.30;;;;;;;0.36;93.54;100676.16;5052643;28;20442;-65
2021/01/02 03:02:09;;;;;;;0.40;0.30;;;;;;;0.29;93.63;100686.09;5053382;28;20859;-64
2021/01/02 03:04:36;;;;;;;0.40;0.30;;;;;;;0.23;93.86;100683.31;5053430;28;20514;-65
2021/01/02 03:07:04;;;;;;;0.40;0.30;;;;;;;0.15;93.51;100683.66;5053551;28;20473;-65
2021/01/02 03:09:31;;;;;;;0.40;0.30;;;;;;;0.18;94.08;100688.53;5053509;28;20533;-64
2021/01/02 03:11:57;;;;;;;0.40;0.40;;;;;;;0.29;93.99;100683.44;5052935;28;20482;-64
2021/01/02 03:14:23;;;;;;;0.40;0.30;;;;;;;0.13;93.88;100685.72;5053505;28;20441;-65
2021/01/02 03:16:49;;;;;;;0.70;0.40;;;;;;;0.05;94.33;100690.59;5053401;28;20470;-65
2021/01/02 03:19:16;;;;;;;0.40;0.30;;;;;;;0.02;93.84;100689.19;5052957;28;20453;-65
2021/01/02 03:21:42;;;;;;;0.40;0.30;;;;;;;0.10;94.06;100698.72;5052780;28;20498;-65
2021/01/02 03:24:09;;;;;;;0.40;0.30;;;;;;;0.01;95.83;100700.09;5053043;28;21006;-65
2021/01/02 03:26:35;;;;;;;0.40;0.30;;;;;;;0.09;95.13;100697.06;5052924;28;20469;-65
2021/01/02 03:29:06;;;;;;;0.40;0.30;;;;;;;0.01;95.63;100695.56;5053218;28;20446;-64
2021/01/02 03:31:32;;;;;;;0.40;0.30;;;;;;;-0.03;94.91;100695.19;5053235;28;20494;-65
2021/01/02 03:33:58;;;;;;;4.77;1.80;;;;;;;0.01;95.68;100702.75;5052886;28;20442;-65
2021/01/02 03:36:24;;;;;;;0.60;0.50;;;;;;;-0.02;96.43;100709.31;5052450;28;20458;-65
2021/01/02 03:38:55;;;;;;;0.40;0.30;;;;;;;0.09;95.88;100713.88;5052448;28;20874;-65
2021/01/02 03:41:23;;;;;;;0.40;0.30;;;;;;;0.14;96.35;100711.34;5052889;28;20493;-65
2021/01/02 03:43:50;;;;;;;0.40;0.30;;;;;;;0.12;96.61;100717.91;5052827;28;20450;-65
2021/01/02 03:46:17;;;;;;;0.40;0.30;;;;;;;0.06;97.42;100719.66;5052875;28;20450;-65
2021/01/02 03:48:43;;;;;;;0.40;0.30;;;;;;;0.11;96.97;100722.44;5052625;28;20442;-65
2021/01/02 03:51:09;;;;;;;0.40;0.30;;;;;;;0.09;96.64;100719.19;5052541;28;20990;-65
2021/01/02 03:53:35;;;;;;;0.40;0.30;;;;;;;0.16;96.69;100725.22;5053060;28;20446;-65
2021/01/02 03:56:02;;;;;;;0.40;0.30;;;;;;;0.22;96.31;100727.00;5052866;28;20430;-65
2021/01/02 03:58:29;;;;;;;0.50;0.40;;;;;;;0.22;96.02;100723.50;5052644;28;20939;-65
2021/01/02 04:00:55;;;;;;;0.40;0.30;;;;;;;0.22;95.88;100718.16;5052843;28;20497;-65
2021/01/02 04:03:21;;;;;;;0.50;0.50;;;;;;;0.20;96.07;100721.06;5052563;28;20446;-65
2021/01/02 04:05:48;;;;;;;0.40;0.30;;;;;;;0.21;95.28;100716.53;5052356;28;20522;-65
2021/01/02 04:08:14;;;;;;;0.40;0.30;;;;;;;0.21;95.16;100720.00;5052531;28;20441;-65
2021/01/02 04:10:41;;;;;;;0.40;0.40;;;;;;;0.19;95.33;100716.78;5052247;28;20498;-65
2021/01/02 04:13:07;;;;;;;0.40;0.30;;;;;;;0.25;95.05;100715.03;5052525;28;20992;-65
2021/01/02 04:15:34;;;;;;;1.43;0.67;;;;;;;0.17;95.06;100716.19;5052357;28;20473;-65
2021/01/02 04:18:01;;;;;;;0.40;0.30;;;;;;;0.22;94.74;100711.00;5052706;28;20467;-65
2021/01/02 04:20:27;;;;;;;0.40;0.30;;;;;;;0.33;95.08;100716.56;5052450;28;20527;-65
2021/01/02 04:22:53;;;;;;;0.40;0.30;;;;;;;0.45;94.76;100722.72;5052381;28;20963;-65
2021/01/02 04:25:20;;;;;;;0.83;0.83;;;;;;;0.54;94.68;100724.00;5052705;28;20520;-65
2021/01/02 04:27:46;;;;;;;0.40;0.30;;;;;;;0.58;95.15;100716.38;5052240;28;20449;-65
2021/01/02 04:30:13;;;;;;;1.07;0.97;;;;;;;0.75;94.70;100718.09;5052442;28;20469;-65
2021/01/02 04:32:48;;;;;;;0.60;0.50;;;;;;;0.88;95.05;100717.03;5052511;28;20474;-65
2021/01/02 04:35:15;;;;;;;0.40;0.30;;;;;;;1.03;95.12;100705.91;5052577;28;20430;-65
2021/01/02 04:37:41;;;;;;;0.40;0.30;;;;;;;1.08;95.22;100710.53;5052494;28;20492;-65
2021/01/02 04:40:10;;;;;;;7.63;1.50;;;;;;;1.21;96.38;100715.59;5052373;28;20505;-64
2021/01/02 04:42:40;;;;;;;0.87;0.43;;;;;;;1.36;96.48;100720.41;5052461;28;20484;-65
2021/01/02 04:45:08;;;;;;;0.40;0.30;;;;;;;1.49;95.97;100712.16;5052324;28;20489;-65
2021/01/02 04:47:36;;;;;;;0.80;0.77;;;;;;;1.62;96.14;100725.22;5055230;28;20472;-66
2021/01/02 04:50:05;;;;;;;1.93;1.23;;;;;;;1.80;96.17;100726.06;5055842;28;20515;-68
2021/01/02 04:52:32;;;;;;;0.80;0.80;;;;;;;1.93;96.09;100734.59;5055939;28;20502;-68
2021/01/02 04:54:59;;;;;;;0.40;0.30;;;;;;;1.96;96.11;100730.66;5055829;28;20442;-67
2021/01/02 04:57:26;;;;;;;0.40;0.30;;;;;;;2.02;95.65;100729.66;5055578;28;20456;-65
2021/01/02 04:59:52;;;;;;;1.00;0.80;;;;;;;2.10;95.47;100731.94;5055283;28;20454;-65
2021/01/02 05:02:20;;;;;;;0.40;0.30;;;;;;;2.18;94.77;100733.44;5055340;28;20444;-65
2021/01/02 05:04:48;;;;;;;6.60;1.43;;;;;;;2.21;94.45;100739.09;5055249;28;21027;-65
2021/01/02 05:07:26;;;;;;;1.27;1.13;;;;;;;2.28;93.97;100744.28;5055314;28;20913;-65
2021/01/02 05:09:53;;;;;;;0.40;0.40;;;;;;;2.32;93.61;100741.94;5055272;28;20538;-65
2021/01/02 05:12:27;;;;;;;0.40;0.30;;;;;;;2.31;93.25;100737.66;5099333;22;20489;-83
2021/01/02 05:15:05;;;;;;;0.50;0.40;;;;;;;2.36;93.05;100745.75;5076233;28;20452;-82
2021/01/02 05:17:32;;;;;;;0.43;0.40;;;;;;;2.35;93.44;100754.81;5076829;28;20927;-82
2021/01/02 05:20:17;;;;;;;0.50;0.47;;;;;;;2.31;93.82;100756.34;5076929;28;20449;-82
2021/01/02 05:22:44;;;;;;;0.57;0.43;;;;;;;2.25;93.79;100756.25;5077053;28;20432;-82
2021/01/02 05:25:14;;;;;;;0.97;0.83;;;;;;;2.31;94.08;100759.03;5076465;28;20486;-82
2021/01/02 05:27:45;;;;;;;2.13;1.67;;;;;;;2.27;93.65;100762.19;5077229;28;20450;-83
2021/01/02 05:30:25;;;;;;;0.40;0.30;;;;;;;2.28;93.69;100761.13;5077075;28;20434;-82
2021/01/02 05:33:13;;;;;;;0.50;0.47;;;;;;;2.28;93.89;100763.78;5077730;28;20435;-82
2021/01/02 05:35:42;;;;;;;0.40;0.30;;;;;;;2.31;94.05;100764.38;5077472;28;20494;-82
2021/01/02 05:38:10;;;;;;;0.60;0.47;;;;;;;2.30;94.20;100768.88;5077242;28;20933;-82
2021/01/02 05:40:37;;;;;;;0.40;0.40;;;;;;;2.32;94.68;100766.78;5077193;28;20452;-82
2021/01/02 05:43:04;;;;;;;0.40;0.30;;;;;;;2.29;94.33;100767.28;5076965;28;21009;-82
2021/01/02 05:45:31;;;;;;;0.40;0.40;;;;;;;2.31;94.25;100775.06;5076913;28;20539;-82
2021/01/02 05:47:58;;;;;;;0.50;0.40;;;;;;;2.32;94.02;100774.81;5077253;28;20449;-81
2021/01/02 05:50:24;;;;;;;0.40;0.30;;;;;;;2.38;93.20;100770.34;5077014;28;20460;-82
2021/01/02 05:52:51;;;;;;;1.77;1.10;;;;;;;2.41;93.14;100769.88;5076920;28;20433;-82
2021/01/02 05:55:31;;;;;;;0.40;0.40;;;;;;;2.42;93.16;100772.31;5076973;28;20533;-82
2021/01/02 05:58:15;;;;;;;0.50;0.40;;;;;;;2.43;93.56;100773.09;5076522;28;20531;-81
2021/01/02 06:00:44;;;;;;;1.37;0.70;;;;;;;2.46;93.86;100775.31;5076988;28;20462;-81
2021/01/02 06:03:22;;;;;;;0.40;0.40;;;;;;;2.49;93.92;100772.97;5076353;28;20463;-81
2021/01/02 06:05:58;;;;;;;0.40;0.27;;;;;;;2.49;93.91;100780.19;5075361;28;20577;-82
2021/01/02 06:08:32;;;;;;;0.90;0.60;;;;;;;2.46;93.76;100776.13;5077808;28;20801;-82
2021/01/02 06:11:02;;;;;;;2.70;1.47;;;;;;;2.37;94.41;100774.09;5078062;28;20494;-82
2021/01/02 06:13:30;;;;;;;0.83;0.80;;;;;;;2.41;94.70;100775.22;5077880;28;20517;-82
2021/01/02 06:15:58;;;;;;;0.40;0.30;;;;;;;2.44;94.47;100778.22;5079005;28;20457;-82
2021/01/02 06:18:25;;;;;;;0.60;0.60;;;;;;;2.43;94.64;100781.94;5077876;28;20448;-82
2021/01/02 06:20:51;;;;;;;0.53;0.53;;;;;;;2.45;94.75;100781.72;5077965;28;20436;-82
2021/01/02 06:23:18;;;;;;;0.90;0.60;;;;;;;2.46;94.75;100783.31;5078196;28;20448;-82
2021/01/02 06:25:47;;;;;;;0.40;0.30;;;;;;;2.46;95.55;100797.50;5077454;28;20493;-82
2021/01/02 06:28:15;;;;;;;2.20;1.73;;;;;;;2.47;95.48;100792.97;5077368;28;20516;-82
2021/01/02 06:30:42;;;;;;;0.60;0.40;;;;;;;2.46;95.60;100797.50;5076808;28;20493;-82
2021/01/02 06:33:14;;;;;;;1.47;0.73;;;;;;;2.48;95.75;100799.94;5076857;28;20430;-82
2021/01/02 06:35:41;;;;;;;0.40;0.30;;;;;;;2.49;95.14;100805.03;5076007;28;20454;-82
2021/01/02 06:38:12;;;;;;;0.40;0.37;;;;;;;2.46;94.83;100800.19;5076120;28;20539;-81
2021/01/02 06:40:41;;;;;;;0.40;0.37;;;;;;;2.44;95.07;100804.16;5075901;28;20433;-82
2021/01/02 06:43:09;;;;;;;0.50;0.50;;;;;;;2.47;95.42;100814.34;5075449;28;20446;-81
2021/01/02 06:45:58;;;;;;;0.87;0.87;;;;;;;2.48;95.44;100807.97;5075251;28;20538;-82
2021/01/02 06:48:48;;;;;;;1.43;1.03;;;;;;;2.46;95.47;100812.72;5076890;28;20434;-81
2021/01/02 06:51:41;;;;;;;0.40;0.30;;;;;;;2.46;95.71;100813.53;5056230;28;20453;-81
2021/01/02 06:54:22;;;;;;;0.53;0.53;;;;;;;2.46;95.52;100820.75;5076311;28;20483;-81
2021/01/02 06:57:01;;;;;;;0.70;0.50;;;;;;;2.47;94.82;100822.38;5076103;28;20519;-81
2021/01/02 06:59:27;;;;;;;0.47;0.40;;;;;;;2.46;95.00;100821.56;5078223;28;20420;-80
2021/01/02 07:01:54;;;;;;;1.80;1.53;;;;;;;2.48;95.17;100826.69;5075394;28;20445;-81
2021/01/02 07:04:35;;;;;;;5.27;1.57;;;;;;;2.44;95.23;100831.69;5075915;28;20492;-81
2021/01/02 07:07:02;;;;;;;0.50;0.50;;;;;;;2.49;95.21;100821.09;5075389;28;20519;-80
2021/01/02 07:09:30;;;;;;;0.50;0.50;;;;;;;2.49;94.92;100828.31;5076227;28;20516;-80
2021/01/02 07:12:20;;;;;;;1.27;0.87;;;;;;;2.46;95.21;100829.59;5081236;28;20945;-80
2021/01/02 07:14:46;;;;;;;1.43;1.33;;;;;;;2.49;95.16;100825.63;5058381;28;20463;-80
2021/01/02 07:17:14;;;;;;;1.37;1.13;;;;;;;2.46;95.26;100821.56;5077951;28;20550;-81
2021/01/02 07:19:45;;;;;;;1.43;1.33;;;;;;;2.48;95.17;100827.50;5077881;28;20425;-81
2021/01/02 07:22:14;;;;;;;0.90;0.53;;;;;;;2.45;95.18;100835.19;5077230;28;20425;-81
2021/01/02 07:24:43;;;;;;;0.40;0.30;;;;;;;2.49;95.15;100830.97;5076426;28;20488;-81
2021/01/02 07:27:11;;;;;;;0.40;0.30;;;;;;;2.45;94.65;100841.34;5078548;28;20439;-81
2021/01/02 07:29:40;;;;;;;0.40;0.30;;;;;;;2.45;94.67;100840.53;5077375;28;20456;-81
2021/01/02 07:32:08;;;;;;;0.40;0.30;;;;;;;2.42;94.43;100849.00;5077622;28;20452;-81
2021/01/02 07:34:36;;;;;;;1.80;0.63;;;;;;;2.44;94.48;100854.94;5078207;28;20461;-80
2021/01/02 07:37:07;;;;;;;0.40;0.30;;;;;;;2.44;94.67;100850.41;5077352;28;20456;-81
2021/01/02 07:39:34;;;;;;;3.17;1.20;;;;;;;2.46;94.62;100866.19;5076876;28;20452;-80
2021/01/02 07:42:05;;;;;;;0.40;0.30;;;;;;;2.50;95.53;100859.31;5078323;28;20447;-82
2021/01/02 07:44:31;;;;;;;0.40;0.30;;;;;;;2.55;95.31;100867.44;5077164;28;20542;-81
2021/01/02 07:46:57;;;;;;;1.93;0.63;;;;;;;2.58;95.96;100869.63;5077834;28;20441;-82
2021/01/02 07:49:23;;;;;;;0.77;0.57;;;;;;;2.58;95.18;100866.16;5077441;28;20949;-81
2021/01/02 07:51:51;;;;;;;2.40;0.97;;;;;;;2.60;94.87;100877.41;5078345;28;20456;-82
2021/01/02 07:54:30;;;;;;;0.40;0.33;;;;;;;2.59;95.77;100868.56;5077821;28;20795;-82
2021/01/02 07:56:57;;;;;;;0.53;0.50;;;;;;;2.60;95.43;100880.88;5077873;28;20859;-81
2021/01/02 07:59:24;;;;;;;0.60;0.60;;;;;;;2.57;95.12;100885.91;5075673;28;20494;-81
2021/01/02 08:01:53;;;;;;;0.40;0.40;;;;;;;2.59;95.14;100892.63;5078528;28;20937;-81
2021/01/02 08:04:20;;;;;;;0.40;0.30;;;;;;;2.47;95.69;100886.53;5079472;28;20421;-81
2021/01/02 08:06:48;;;;;;;1.90;0.50;;;;;;;2.50;95.17;100896.75;5080378;28;20464;-81
2021/01/02 08:09:15;;;;;;;0.73;0.57;;;;;;;2.55;95.16;100896.84;5079344;28;20445;-81
2021/01/02 08:12:00;;;;;;;0.40;0.30;;;;;;;2.61;94.82;100903.91;5078439;28;20957;-81
2021/01/02 08:14:31;;;;;;;0.40;0.30;;;;;;;2.63;95.40;100896.44;5076415;28;20441;-81
2021/01/02 08:17:06;;;;;;;1.47;1.40;;;;;;;2.64;94.76;100898.06;5069696;28;20505;-81
2021/01/02 08:19:35;;;;;;;0.60;0.60;;;;;;;2.69;94.49;100900.03;5056452;28;20445;-81
2021/01/02 08:22:04;;;;;;;0.70;0.70;;;;;;;2.72;94.16;100905.69;5058174;28;20434;-81
2021/01/02 08:24:31;;;;;;;1.00;0.73;;;;;;;2.80;93.76;100914.41;5059653;28;21049;-81
2021/01/02 08:26:58;;;;;;;0.50;0.50;;;;;;;2.84;93.02;100912.88;5059595;28;20452;-81
2021/01/02 08:29:27;;;;;;;0.60;0.50;;;;;;;2.85;93.05;100919.84;5058905;28;20438;-81
2021/01/02 08:31:58;;;;;;;8.87;1.80;;;;;;;2.89;92.15;100921.78;5058418;28;20947;-81
2021/01/02 08:34:30;;;;;;;0.90;0.60;;;;;;;2.92;91.93;100921.31;5057869;28;20411;-81
2021/01/02 08:37:04;;;;;;;0.50;0.40;;;;;;;3.00;92.49;100926.25;5057557;28;20943;-81
2021/01/02 08:39:31;;;;;;;0.40;0.30;;;;;;;3.03;93.29;100919.59;5059220;28;20429;-80
2021/01/02 08:41:59;;;;;;;0.40;0.40;;;;;;;3.10;93.69;100927.47;5059795;28;20473;-81
2021/01/02 08:44:29;;;;;;;0.47;0.47;;;;;;;3.19;93.28;100926.84;5059863;28;20855;-80
2021/01/02 08:46:55;;;;;;;0.50;0.50;;;;;;;3.21;93.23;100930.06;5060313;28;20449;-80
2021/01/02 08:49:41;;;;;;;1.33;1.03;;;;;;;3.22;93.60;100934.34;5060317;28;20446;-80
2021/01/02 08:52:26;;;;;;;1.20;1.20;;;;;;;3.32;93.08;100935.56;5059017;28;20426;-80
2021/01/02 08:54:55;;;;;;;0.40;0.30;;;;;;;3.34;92.57;100938.84;5058914;28;20466;-80
2021/01/02 08:57:32;;;;;;;0.40;0.30;;;;;;;3.33;91.92;100942.56;5059235;28;20446;-81
2021/01/02 09:00:16;;;;;;;0.87;0.57;;;;;;;3.31;92.89;100939.31;5060132;28;20450;-80
2021/01/02 09:02:44;;;;;;;3.47;1.60;;;;;;;3.34;92.89;100941.50;5061428;28;20407;-80
2021/01/02 09:05:12;;;;;;;0.50;0.40;;;;;;;3.32;93.21;100938.25;5062456;28;20482;-81
2021/01/02 09:07:39;;;;;;;0.60;0.57;;;;;;;3.39;92.65;100946.94;5062334;28;20807;-81
2021/01/02 09:10:18;;;;;;;1.37;0.70;;;;;;;3.40;92.70;100952.03;5071310;28;20442;-80
2021/01/02 09:13:13;;;;;;;0.40;0.30;;;;;;;3.40;92.46;100948.56;5078310;28;20445;-79
2021/01/02 09:15:53;;;;;;;0.40;0.30;;;;;;;3.43;92.19;100951.56;5073658;28;20477;-80
2021/01/02 09:18:39;;;;;;;0.60;0.60;;;;;;;3.48;92.16;100954.31;5080810;28;20421;-80
2021/01/02 09:21:22;;;;;;;3.80;1.13;;;;;;;3.52;93.14;100957.31;5080488;28;20430;-79
2021/01/02 09:23:51;;;;;;;3.13;1.30;;;;;;;3.63;93.25;100958.28;5080286;28;20437;-79
2021/01/02 09:26:23;;;;;;;0.40;0.30;;;;;;;3.75;93.13;100957.13;5080539;28;20492;-80
2021/01/02 09:28:50;;;;;;;1.07;0.63;;;;;;;3.81;92.81;100958.03;5080114;28;20422;-79
2021/01/02 09:31:17;;;;;;;0.40;0.30;;;;;;;3.90;91.97;100963.78;5079440;28;21003;-80
2021/01/02 09:33:43;;;;;;;2.23;0.87;;;;;;;3.84;91.26;100970.09;5078807;28;20438;-80
2021/01/02 09:36:12;;;;;;;0.50;0.50;;;;;;;3.92;92.03;100975.03;5076973;28;20473;-77
2021/01/02 09:38:39;;;;;;;0.93;0.70;;;;;;;3.96;91.24;100973.50;5075477;28;20437;-77
2021/01/02 09:41:06;;;;;;;2.97;2.20;;;;;;;3.95;90.74;100978.03;5075364;28;20946;-77
2021/01/02 09:43:32;;;;;;;0.50;0.40;;;;;;;3.96;90.61;100979.66;5075369;28;20476;-77
2021/01/02 09:45:58;;;;;;;6.10;2.03;;;;;;;3.95;90.78;100982.59;5075367;28;20839;-77
2021/01/02 09:48:24;;;;;;;4.97;4.57;;;;;;;3.96;90.44;100976.16;5075579;28;20862;-77
2021/01/02 09:50:51;;;;;;;0.87;0.87;;;;;;;3.98;90.18;100976.72;5075667;28;20449;-77
2021/01/02 09:53:17;;;;;;;2.70;2.10;;;;;;;4.08;89.17;100976.88;5075235;28;20602;-77
2021/01/02 09:55:44;;;;;;;0.40;0.30;;;;;;;4.12;89.52;100969.97;5075365;28;20544;-77
2021/01/02 09:58:11;;;;;;;14.63;3.03;;;;;;;4.16;89.55;100968.41;5075151;28;20487;-78
2021/01/02 10:00:38;;;;;;;0.40;0.40;;;;;;;4.21;90.49;100967.66;5075298;28;20899;-77
2021/01/02 10:03:07;;;;;;;12.50;1.60;;;;;;;4.33;90.35;100972.88;5075401;28;20433;-78
2021/01/02 10:05:33;;;;;;;4.47;3.33;;;;;;;4.39;90.17;100972.72;5074999;28;20978;-78
2021/01/02 10:07:59;;;;;;;2.20;1.00;;;;;;;4.43;89.23;100973.03;5075389;28;20502;-78
2021/01/02 10:10:25;;;;;;;3.03;0.93;;;;;;;4.48;88.64;100975.75;5075091;28;20445;-78
2021/01/02 10:12:52;;;;;;;2.00;1.23;;;;;;;4.53;88.25;100973.94;5075218;28;20500;-78
2021/01/02 10:15:20;;;;;;;1.73;0.57;;;;;;;4.58;88.53;100975.88;5074686;28;20481;-78
2021/01/02 10:17:46;;;;;;;3.63;1.13;;;;;;;4.55;88.41;100976.34;5074991;28;20536;-77
2021/01/02 10:20:14;;;;;;;0.50;0.40;;;;;;;4.52;89.06;100971.53;5075105;28;20455;-78
2021/01/02 10:22:40;;;;;;;2.00;0.97;;;;;;;4.57;89.26;100968.88;5074845;28;20437;-77
2021/01/02 10:25:08;;;;;;;0.40;0.30;;;;;;;4.56;88.98;100969.97;5074774;28;20488;-77
2021/01/02 10:27:34;;;;;;;1.17;1.07;;;;;;;4.56;88.75;100972.63;5075075;28;20445;-77
2021/01/02 10:30:01;;;;;;;0.80;0.80;;;;;;;4.51;88.49;100969.88;5074892;28;20558;-77
2021/01/02 10:32:30;;;;;;;0.60;0.50;;;;;;;4.52;88.87;100968.84;5074771;28;20438;-77
2021/01/02 10:34:56;;;;;;;0.60;0.40;;;;;;;4.48;88.49;100960.47;5076724;28;20552;-78
2021/01/02 10:37:25;;;;;;;8.77;2.77;;;;;;;4.51;88.74;100964.50;5075998;28;20442;-78
2021/01/02 10:39:52;;;;;;;10.10;1.10;;;;;;;4.47;88.83;100963.38;5075533;28;20445;-78
2021/01/02 10:42:27;;;;;;;1.10;0.40;;;;;;;4.50;88.61;100957.53;5074403;28;20452;-78
2021/01/02 10:44:53;;;;;;;8.13;1.33;;;;;;;4.46;87.69;100957.22;5074985;28;20489;-78
2021/01/02 10:47:21;;;;;;;0.80;0.80;;;;;;;4.53;87.56;100957.03;5074721;28;20473;-78
2021/01/02 10:49:49;;;;;;;1.73;0.80;;;;;;;4.57;87.77;100960.03;5074424;28;20446;-77
2021/01/02 10:52:17;;;;;;;1.00;0.70;;;;;;;4.51;87.73;100954.59;5074931;28;20441;-78
2021/01/02 10:54:45;;;;;;;0.83;0.73;;;;;;;4.52;87.37;100950.88;5074118;28;20457;-78
2021/01/02 10:57:12;;;;;;;1.53;1.43;;;;;;;4.63;87.03;100946.41;5074228;28;20454;-77
2021/01/02 10:59:38;;;;;;;1.63;1.53;;;;;;;4.74;87.55;100950.03;5074074;28;20429;-78
2021/01/02 11:02:04;;;;;;;0.50;0.47;;;;;;;4.84;87.70;100952.00;5073998;28;20426;-78
2021/01/02 11:04:31;;;;;;;1.70;1.43;;;;;;;4.93;87.20;100948.59;5074307;28;20484;-77
2021/01/02 11:06:58;;;;;;;0.90;0.90;;;;;;;4.99;86.59;100944.88;5074219;28;20441;-77
2021/01/02 11:09:25;;;;;;;2.17;0.67;;;;;;;5.00;86.62;100948.38;5074121;28;20437;-77
2021/01/02 11:11:53;;;;;;;1.90;1.47;;;;;;;5.08;86.13;100942.53;5073926;28;20457;-77
2021/01/02 11:14:20;;;;;;;0.63;0.50;;;;;;;5.16;85.05;100934.03;5077550;28;20926;-78
2021/01/02 11:16:47;;;;;;;2.13;1.87;;;;;;;5.27;84.86;100945.66;5076267;28;20449;-78
2021/01/02 11:19:15;;;;;;;1.50;1.40;;;;;;;5.38;84.48;100936.59;5079260;28;20537;-78
2021/01/02 11:21:42;;;;;;;1.13;0.80;;;;;;;5.44;83.70;100935.56;5077006;28;21007;-78
2021/01/02 11:24:10;;;;;;;1.53;1.17;;;;;;;5.51;83.92;100935.34;5084674;28;20437;-78
2021/01/02 11:26:36;;;;;;;0.60;0.43;;;;;;;5.56;84.91;100938.88;5085671;28;20848;-78
2021/01/02 11:29:03;;;;;;;0.47;0.37;;;;;;;5.61;85.32;100935.41;5082901;28;20441;-78
2021/01/02 11:31:31;;;;;;;1.80;1.70;;;;;;;5.65;85.24;100930.34;5074488;28;20438;-78
2021/01/02 11:33:57;;;;;;;8.03;2.83;;;;;;;5.68;85.47;100927.13;5074454;28;20468;-78
2021/01/02 11:36:24;;;;;;;0.97;0.97;;;;;;;5.69;85.62;100937.63;5075554;28;20461;-79
2021/01/02 11:38:53;;;;;;;1.47;1.37;;;;;;;5.67;85.77;100933.59;5082607;28;20422;-78
2021/01/02 11:41:31;;;;;;;5.03;1.70;;;;;;;5.65;84.48;100931.16;5077760;28;20434;-78
2021/01/02 11:43:57;;;;;;;0.97;0.60;;;;;;;5.64;84.77;100936.78;5073695;28;20440;-78
2021/01/02 11:46:27;;;;;;;1.40;1.20;;;;;;;5.66;85.44;100929.25;5073506;28;20489;-77
2021/01/02 11:48:54;;;;;;;1.83;1.00;;;;;;;5.76;85.56;100924.78;5073676;28;20449;-77
2021/01/02 11:51:20;;;;;;;2.43;2.10;;;;;;;5.74;83.70;100920.72;5073689;28;20563;-77
2021/01/02 11:53:46;;;;;;;0.90;0.80;;;;;;;5.68;83.58;100929.81;5073450;28;20456;-78